Time;durP1;ratioP1;P1;durP2;ratioP2;P2;SDS_P1;SDS_P2;PMS_P1;PMS_P2;Temp;Humidity;BMP_temperature;BMP_pressure;BME280_temperature;BME280_humidity;BME280_pressure;Samples;Min_cycle;Max_cycle;Signal;HPM_P1;HPM_P2
2021/08/11 00:01:57;;;;;;;9.57;2.65;;;26.30;51.00;;;;;;6175945;28;20038;-76
2021/08/11 00:04:58;;;;;;;5.22;2.42;;;26.20;51.00;;;;;;6176057;28;20043;-75
2021/08/11 00:07:59;;;;;;;5.47;2.38;;;26.20;50.80;;;;;;6176933;28;20356;-75
2021/08/11 00:11:00;;;;;;;9.27;2.88;;;26.20;50.70;;;;;;6175646;28;20055;-75
2021/08/11 00:14:01;;;;;;;4.53;2.30;;;26.20;50.60;;;;;;6175407;28;20031;-75
2021/08/11 00:17:03;;;;;;;4.40;2.53;;;26.20;50.60;;;;;;6159405;28;20035;-75
2021/08/11 00:20:06;;;;;;;9.88;2.78;;;26.20;50.60;;;;;;6175040;28;20337;-75
2021/08/11 00:23:07;;;;;;;7.20;2.38;;;26.10;50.40;;;;;;6176295;28;20031;-75
2021/08/11 00:26:08;;;;;;;9.07;2.60;;;26.10;50.50;;;;;;6176250;28;20038;-75
2021/08/11 00:29:09;;;;;;;6.28;2.38;;;26.10;50.60;;;;;;6159033;28;20061;-75
2021/08/11 00:32:10;;;;;;;4.57;2.25;;;26.00;50.70;;;;;;6173791;28;20098;-75
2021/08/11 00:35:12;;;;;;;3.22;1.95;;;25.90;50.90;;;;;;6175302;28;20475;-75
2021/08/11 00:38:14;;;;;;;3.95;2.47;;;25.90;51.00;;;;;;6165657;28;20042;-75
2021/08/11 00:41:16;;;;;;;5.35;2.63;;;25.80;51.00;;;;;;6182959;28;20138;-75
2021/08/11 00:44:17;;;;;;;13.07;2.80;;;25.80;51.10;;;;;;6183001;28;20034;-75
2021/08/11 00:47:26;;;;;;;4.90;2.20;;;25.80;51.10;;;;;;6179937;28;20030;-75
2021/08/11 00:50:27;;;;;;;5.25;2.40;;;25.80;51.20;;;;;;6198908;28;20049;-75
2021/08/11 00:53:34;;;;;;;8.50;2.60;;;25.80;51.30;;;;;;6182710;28;20030;-75
2021/08/11 00:56:39;;;;;;;5.63;2.42;;;25.70;51.40;;;;;;6199121;28;20113;-75
2021/08/11 00:59:42;;;;;;;6.10;2.40;;;25.70;51.60;;;;;;6182674;28;20034;-75
2021/08/11 01:02:48;;;;;;;3.88;2.60;;;25.70;51.70;;;;;;6196498;28;20062;-75
2021/08/11 01:05:56;;;;;;;9.05;2.58;;;25.70;51.80;;;;;;6182645;28;20035;-75
2021/08/11 01:08:58;;;;;;;8.68;2.67;;;25.70;51.90;;;;;;6167010;28;20121;-75
2021/08/11 01:12:00;;;;;;;6.78;2.67;;;25.70;51.90;;;;;;6181265;28;20184;-76
2021/08/11 01:15:07;;;;;;;5.00;2.80;;;25.60;51.50;;;;;;6182284;28;20038;-74
2021/08/11 01:18:09;;;;;;;3.33;1.95;;;25.60;51.20;;;;;;6185658;28;20046;-74
2021/08/11 01:21:20;;;;;;;3.50;2.42;;;25.60;51.10;;;;;;6198826;28;20037;-75
2021/08/11 01:24:27;;;;;;;3.97;2.40;;;25.60;51.00;;;;;;6211056;28;20049;-75
2021/08/11 01:27:53;;;;;;;7.03;2.55;;;25.60;51.10;;;;;;6210829;28;20084;-74
2021/08/11 01:31:07;;;;;;;5.43;2.53;;;25.50;51.30;;;;;;6211204;28;20121;-75
2021/08/11 01:34:42;;;;;;;9.63;2.65;;;25.50;51.40;;;;;;6188479;28;20354;-74
2021/08/11 01:37:49;;;;;;;4.30;2.60;;;25.40;51.40;;;;;;6061505;29;20033;-75
2021/08/11 01:40:58;;;;;;;5.80;2.80;;;25.40;51.60;;;;;;6062464;29;20144;-75
2021/08/11 01:44:03;;;;;;;7.65;2.42;;;25.40;51.80;;;;;;6062392;29;20064;-74
2021/08/11 01:47:12;;;;;;;9.50;3.10;;;25.40;52.00;;;;;;6077858;29;20447;-74
2021/08/11 01:50:17;;;;;;;7.38;2.70;;;25.40;52.10;;;;;;6062103;29;20419;-74
2021/08/11 01:53:21;;;;;;;5.15;2.40;;;25.30;52.30;;;;;;6062052;29;20044;-74
2021/08/11 01:56:23;;;;;;;10.55;2.88;;;25.30;52.40;;;;;;6061454;29;20050;-75
2021/08/11 01:59:27;;;;;;;4.00;2.75;;;25.20;52.70;;;;;;6061673;29;20036;-75
2021/08/11 02:02:28;;;;;;;5.38;2.75;;;25.20;53.10;;;;;;6060909;29;20247;-74
2021/08/11 02:05:31;;;;;;;4.75;2.30;;;25.20;53.20;;;;;;6079137;29;20471;-74
2021/08/11 02:08:43;;;;;;;5.93;2.35;;;25.10;53.30;;;;;;6047840;29;20518;-75
2021/08/11 02:11:46;;;;;;;4.57;2.47;;;25.10;53.30;;;;;;6078534;29;20131;-75
2021/08/11 02:14:49;;;;;;;5.03;2.90;;;25.10;53.30;;;;;;6160030;28;20031;-75
2021/08/11 02:17:51;;;;;;;9.52;2.53;;;25.10;53.30;;;;;;6174336;28;20062;-75
2021/08/11 02:20:54;;;;;;;6.43;2.17;;;25.00;53.30;;;;;;6158406;28;20073;-74
2021/08/11 02:23:55;;;;;;;6.05;2.45;;;25.00;53.40;;;;;;6175296;28;20471;-75
2021/08/11 02:27:04;;;;;;;7.50;2.38;;;25.00;53.70;;;;;;6157870;28;20035;-75
2021/08/11 02:30:13;;;;;;;11.25;2.85;;;24.90;53.70;;;;;;6157780;28;20054;-75
2021/08/11 02:33:28;;;;;;;5.88;2.53;;;24.80;53.80;;;;;;6159235;28;20112;-75
2021/08/11 02:36:39;;;;;;;6.18;2.50;;;24.80;53.90;;;;;;6181423;28;20057;-75
2021/08/11 02:40:08;;;;;;;7.20;2.70;;;24.80;54.10;;;;;;6155267;28;20046;-75
2021/08/11 02:43:37;;;;;;;6.67;2.40;;;24.70;54.20;;;;;;6148392;28;20035;-75
2021/08/11 02:46:42;;;;;;;8.48;2.85;;;24.70;54.40;;;;;;6120412;28;20035;-74
2021/08/11 02:49:44;;;;;;;5.75;2.53;;;24.70;54.60;;;;;;6145219;28;20035;-75
2021/08/11 02:52:46;;;;;;;7.43;2.50;;;24.70;54.70;;;;;;6121532;29;20035;-75
2021/08/11 02:55:48;;;;;;;10.00;2.67;;;24.60;54.80;;;;;;6148407;28;20035;-74
2021/08/11 02:58:49;;;;;;;4.32;2.45;;;24.60;55.00;;;;;;6147389;28;20161;-75
2021/08/11 03:01:52;;;;;;;6.13;2.45;;;24.50;55.20;;;;;;6148755;28;20042;-75
2021/08/11 03:04:54;;;;;;;10.30;2.90;;;24.40;55.40;;;;;;6131458;28;20062;-74
2021/08/11 03:07:55;;;;;;;4.85;2.33;;;24.40;55.40;;;;;;6147994;28;20098;-75
2021/08/11 03:10:57;;;;;;;8.23;2.63;;;24.30;55.60;;;;;;6149438;28;20035;-75
2021/08/11 03:14:00;;;;;;;5.57;2.47;;;24.30;55.60;;;;;;6132293;28;20080;-75
2021/08/11 03:17:01;;;;;;;6.82;2.70;;;24.20;55.70;;;;;;6147854;28;20042;-75
2021/08/11 03:20:03;;;;;;;3.78;2.42;;;24.20;55.80;;;;;;6148010;28;20032;-75
2021/08/11 03:23:05;;;;;;;6.32;2.78;;;24.20;56.00;;;;;;6146697;28;20055;-75
2021/08/11 03:26:06;;;;;;;7.15;2.75;;;24.20;56.10;;;;;;6147995;28;20031;-74
2021/08/11 03:29:07;;;;;;;4.28;2.88;;;24.10;56.30;;;;;;6146784;28;20039;-75
2021/08/11 03:32:14;;;;;;;3.30;2.22;;;24.10;56.40;;;;;;6132076;28;20043;-75
2021/08/11 03:35:19;;;;;;;10.02;2.58;;;24.10;56.40;;;;;;6150045;28;20055;-75
2021/08/11 03:38:21;;;;;;;4.07;2.05;;;24.00;57.00;;;;;;6146626;28;20371;-74
2021/08/11 03:41:23;;;;;;;5.05;2.53;;;24.10;56.40;;;;;;6179283;28;20045;-75
2021/08/11 03:44:25;;;;;;;4.05;2.58;;;24.00;56.40;;;;;;6187556;28;20376;-74
2021/08/11 03:47:27;;;;;;;4.93;2.63;;;24.00;56.20;;;;;;6180024;28;20484;-75
2021/08/11 03:50:28;;;;;;;4.10;2.25;;;24.00;55.90;;;;;;6164464;28;20097;-75
2021/08/11 03:53:31;;;;;;;5.30;2.78;;;23.90;55.70;;;;;;6180072;28;20034;-75
2021/08/11 03:56:32;;;;;;;3.47;2.35;;;23.90;55.80;;;;;;6179617;28;20041;-75
2021/08/11 03:59:35;;;;;;;6.13;2.55;;;23.90;55.90;;;;;;6179855;28;20041;-75
2021/08/11 04:02:37;;;;;;;6.82;3.10;;;23.90;55.90;;;;;;6161504;28;20034;-74
2021/08/11 04:05:38;;;;;;;4.40;2.42;;;23.90;55.90;;;;;;6196968;28;20463;-75
2021/08/11 04:08:39;;;;;;;3.83;2.28;;;23.90;55.90;;;;;;6180083;28;20042;-73
2021/08/11 04:11:40;;;;;;;6.22;2.50;;;23.90;55.90;;;;;;6180010;28;20374;-75
2021/08/11 04:14:41;;;;;;;5.35;2.38;;;23.80;56.00;;;;;;6179742;28;20030;-76
2021/08/11 04:17:42;;;;;;;4.40;2.55;;;23.80;56.10;;;;;;6196749;28;20045;-76
2021/08/11 04:20:44;;;;;;;15.40;3.20;;;23.70;56.10;;;;;;6196966;28;20038;-73
2021/08/11 04:23:45;;;;;;;8.60;3.25;;;23.70;56.20;;;;;;6195924;28;20049;-74
2021/08/11 04:26:46;;;;;;;3.90;2.50;;;23.70;56.30;;;;;;6195795;28;20368;-76
2021/08/11 04:29:47;;;;;;;4.47;2.90;;;23.60;56.50;;;;;;6196470;28;20073;-76
2021/08/11 04:32:47;;;;;;;4.88;2.75;;;23.60;56.50;;;;;;6195212;28;20060;-76
2021/08/11 04:35:48;;;;;;;5.55;2.95;;;23.60;56.60;;;;;;6178292;28;20062;-76
2021/08/11 04:38:49;;;;;;;9.45;2.63;;;23.60;56.70;;;;;;6195805;28;20053;-76
2021/08/11 04:41:50;;;;;;;7.10;2.88;;;23.50;56.70;;;;;;6196496;28;20117;-75
2021/08/11 04:44:51;;;;;;;4.70;2.90;;;23.50;56.80;;;;;;6192982;28;20042;-75
2021/08/11 04:47:52;;;;;;;6.45;3.00;;;23.40;57.00;;;;;;6179351;28;20383;-75
2021/08/11 04:50:53;;;;;;;4.05;2.53;;;23.40;57.10;;;;;;6179851;28;20046;-75
2021/08/11 04:53:54;;;;;;;6.28;2.80;;;23.40;57.20;;;;;;6201456;28;20435;-75
2021/08/11 04:56:55;;;;;;;4.55;2.50;;;23.30;57.30;;;;;;6174856;28;20026;-75
2021/08/11 04:59:57;;;;;;;8.63;3.17;;;23.40;57.30;;;;;;6184114;28;20113;-75
2021/08/11 05:02:58;;;;;;;5.88;2.97;;;23.40;57.20;;;;;;6198690;28;20030;-75
2021/08/11 05:05:59;;;;;;;9.00;2.63;;;23.40;57.10;;;;;;6200964;28;20038;-75
2021/08/11 05:09:00;;;;;;;5.28;2.65;;;23.40;57.10;;;;;;6201154;28;20415;-75
2021/08/11 05:12:01;;;;;;;5.57;2.88;;;23.40;57.10;;;;;;6190945;28;20034;-75
2021/08/11 05:15:05;;;;;;;3.35;2.40;;;23.50;57.10;;;;;;6183969;28;20397;-76
2021/08/11 05:18:07;;;;;;;6.75;2.70;;;23.50;57.10;;;;;;6201333;28;20431;-74
2021/08/11 05:21:08;;;;;;;8.13;3.03;;;23.50;57.10;;;;;;6202031;28;20050;-75
2021/08/11 05:24:11;;;;;;;5.60;2.85;;;23.50;57.00;;;;;;6201546;28;20475;-75
2021/08/11 05:27:13;;;;;;;4.43;2.90;;;23.60;57.00;;;;;;6202031;28;20388;-75
2021/08/11 05:30:14;;;;;;;6.88;2.90;;;23.60;57.00;;;;;;6174750;28;20054;-75
2021/08/11 05:33:15;;;;;;;10.57;2.80;;;23.70;56.90;;;;;;6183299;28;20101;-74
2021/08/11 05:36:16;;;;;;;9.05;2.80;;;23.70;56.80;;;;;;6184430;28;20066;-74
2021/08/11 05:39:17;;;;;;;11.02;3.13;;;23.70;56.70;;;;;;6184401;28;20137;-74
2021/08/11 05:42:17;;;;;;;7.13;2.88;;;23.70;56.60;;;;;;6184542;28;20117;-74
2021/08/11 05:45:18;;;;;;;10.15;3.38;;;23.80;56.40;;;;;;6201269;28;20083;-74
2021/08/11 05:48:19;;;;;;;6.30;3.00;;;23.90;56.20;;;;;;6200768;28;20096;-74
2021/08/11 05:51:20;;;;;;;4.65;2.70;;;24.00;56.10;;;;;;6201169;28;20042;-74
2021/08/11 05:54:21;;;;;;;7.28;2.78;;;24.00;55.90;;;;;;6183919;28;20046;-74
2021/08/11 05:57:22;;;;;;;5.10;3.08;;;24.10;55.90;;;;;;6201032;28;20061;-74
2021/08/11 06:00:23;;;;;;;7.70;2.72;;;24.10;55.80;;;;;;6183637;28;20430;-76
2021/08/11 06:03:24;;;;;;;6.28;2.42;;;24.10;55.80;;;;;;6198392;28;20038;-74
2021/08/11 06:06:35;;;;;;;6.63;2.70;;;24.20;55.60;;;;;;6182878;28;20066;-76
2021/08/11 06:09:36;;;;;;;4.75;2.80;;;24.20;55.50;;;;;;6200610;28;20410;-76
2021/08/11 06:12:38;;;;;;;9.55;3.00;;;24.20;55.40;;;;;;6200329;28;20456;-74
2021/08/11 06:15:39;;;;;;;11.15;2.80;;;24.30;55.30;;;;;;6166944;28;20042;-75
2021/08/11 06:18:40;;;;;;;5.18;2.70;;;24.30;55.10;;;;;;6200373;28;20448;-75
2021/08/11 06:21:41;;;;;;;4.45;2.55;;;24.40;55.10;;;;;;6183147;28;20034;-77
2021/08/11 06:24:43;;;;;;;12.05;2.63;;;24.40;54.80;;;;;;6183307;28;20509;-75
2021/08/11 06:27:44;;;;;;;4.15;2.70;;;24.50;54.70;;;;;;6172421;28;20444;-74
2021/08/11 06:30:45;;;;;;;8.55;3.08;;;24.50;54.80;;;;;;6183136;28;20122;-74
2021/08/11 06:33:47;;;;;;;5.07;2.90;;;24.60;54.80;;;;;;6198837;28;20038;-74
2021/08/11 06:36:48;;;;;;;9.45;3.45;;;24.60;54.70;;;;;;6201937;28;20057;-74
2021/08/11 06:39:49;;;;;;;8.18;2.63;;;24.70;54.70;;;;;;6155316;28;20039;-74
2021/08/11 06:42:51;;;;;;;3.92;2.65;;;24.80;54.60;;;;;;6151696;28;20094;-74
2021/08/11 06:45:56;;;;;;;13.15;3.05;;;24.80;54.30;;;;;;6150590;28;20044;-74
2021/08/11 06:48:59;;;;;;;7.05;3.33;;;24.90;54.10;;;;;;6150510;28;20055;-74
2021/08/11 06:52:00;;;;;;;5.05;3.03;;;25.00;54.00;;;;;;6150873;28;20391;-75
2021/08/11 06:55:13;;;;;;;6.65;2.90;;;25.10;53.80;;;;;;6131432;28;20121;-76
2021/08/11 06:58:14;;;;;;;19.38;3.20;;;25.20;53.70;;;;;;6133917;28;20039;-77
2021/08/11 07:01:15;;;;;;;3.00;2.20;;;25.30;53.40;;;;;;6134085;28;20106;-74
2021/08/11 07:04:16;;;;;;;5.13;3.38;;;25.40;53.10;;;;;;6148545;28;20461;-75
2021/08/11 07:07:17;;;;;;;8.25;3.45;;;25.40;53.00;;;;;;6150253;28;20102;-75
2021/08/11 07:10:18;;;;;;;16.83;4.20;;;25.50;52.80;;;;;;6134138;28;20423;-74
2021/08/11 07:13:20;;;;;;;9.45;3.08;;;25.60;52.70;;;;;;6149892;28;20097;-75
2021/08/11 07:16:22;;;;;;;8.93;3.25;;;25.70;52.50;;;;;;6150141;28;20035;-74
2021/08/11 07:19:23;;;;;;;10.20;2.63;;;25.80;52.30;;;;;;6150052;28;20043;-75
2021/08/11 07:22:24;;;;;;;7.00;2.47;;;25.90;52.10;;;;;;6151228;28;20036;-74
2021/08/11 07:25:26;;;;;;;5.25;2.72;;;26.00;51.90;;;;;;6149600;28;20062;-76
2021/08/11 07:28:27;;;;;;;14.45;3.10;;;26.00;51.70;;;;;;6149609;28;20043;-75
2021/08/11 07:31:28;;;;;;;4.38;2.72;;;26.10;51.60;;;;;;6149503;28;20125;-76
2021/08/11 07:34:29;;;;;;;7.30;2.65;;;26.20;51.40;;;;;;6148537;28;20053;-76
2021/08/11 07:37:30;;;;;;;3.42;2.40;;;26.30;51.10;;;;;;6151825;28;20118;-76
2021/08/11 07:40:34;;;;;;;5.40;2.25;;;26.40;50.80;;;;;;6198481;28;20034;-75
2021/08/11 07:43:35;;;;;;;6.70;2.78;;;26.50;50.60;;;;;;6181105;28;20412;-75
2021/08/11 07:46:36;;;;;;;10.30;2.78;;;26.60;50.20;;;;;;6198595;28;20041;-75
2021/08/11 07:49:38;;;;;;;7.22;3.30;;;26.70;50.00;;;;;;6180911;28;20356;-75
2021/08/11 07:52:39;;;;;;;5.47;2.70;;;26.80;49.90;;;;;;6181236;28;20042;-75
2021/08/11 07:55:40;;;;;;;6.38;3.05;;;26.80;49.80;;;;;;6164179;28;20129;-75
2021/08/11 07:58:41;;;;;;;4.70;2.60;;;27.00;49.50;;;;;;6197833;28;20042;-76
2021/08/11 08:01:42;;;;;;;8.35;3.20;;;27.10;49.00;;;;;;6180133;28;20041;-74
2021/08/11 08:04:43;;;;;;;5.82;2.80;;;27.20;48.60;;;;;;6164825;28;20045;-74
2021/08/11 08:07:44;;;;;;;6.50;3.15;;;27.30;48.40;;;;;;6182321;28;20031;-75
2021/08/11 08:10:46;;;;;;;4.15;2.65;;;27.40;48.00;;;;;;6180818;28;20046;-75
2021/08/11 08:13:48;;;;;;;7.60;2.40;;;27.60;47.80;;;;;;6180907;28;20030;-76
2021/08/11 08:16:50;;;;;;;5.03;2.78;;;27.80;47.60;;;;;;6196958;28;20026;-75
2021/08/11 08:19:51;;;;;;;4.55;2.58;;;27.90;47.20;;;;;;6180654;28;20041;-76
2021/08/11 08:22:52;;;;;;;7.35;2.78;;;28.00;46.90;;;;;;6180786;28;20030;-74
2021/08/11 08:25:53;;;;;;;7.38;2.83;;;28.10;46.70;;;;;;6197571;28;20153;-76
2021/08/11 08:28:54;;;;;;;5.55;2.80;;;28.20;46.50;;;;;;6197244;28;20100;-75
2021/08/11 08:31:55;;;;;;;7.90;2.70;;;28.20;46.30;;;;;;6162919;28;20054;-75
2021/08/11 08:34:56;;;;;;;8.88;2.95;;;28.30;46.20;;;;;;6180196;28;20058;-75
2021/08/11 08:37:58;;;;;;;11.48;2.65;;;28.40;46.40;;;;;;6196845;28;20053;-75
2021/08/11 08:40:59;;;;;;;7.43;2.92;;;28.50;46.20;;;;;;6179974;28;20035;-74
2021/08/11 08:44:00;;;;;;;6.03;3.50;;;28.60;46.10;;;;;;6179287;28;20092;-76
2021/08/11 08:47:02;;;;;;;4.65;2.88;;;28.70;45.90;;;;;;6194669;28;20121;-75
2021/08/11 08:50:09;;;;;;;9.30;3.15;;;28.70;45.70;;;;;;6197066;28;20105;-75
2021/08/11 08:53:11;;;;;;;4.18;2.60;;;28.70;46.10;;;;;;6163404;28;20049;-75
2021/08/11 08:56:12;;;;;;;8.15;3.00;;;28.80;45.40;;;;;;6196284;28;20038;-75
2021/08/11 08:59:13;;;;;;;5.50;2.63;;;28.80;45.40;;;;;;6179660;28;20428;-75
2021/08/11 09:02:15;;;;;;;14.30;5.32;;;28.90;45.10;;;;;;6195959;28;20038;-75
2021/08/11 09:05:16;;;;;;;8.60;3.30;;;29.00;44.90;;;;;;6180158;28;20047;-75
2021/08/11 09:08:17;;;;;;;6.32;3.35;;;29.00;45.00;;;;;;6179609;28;20046;-75
2021/08/11 09:11:18;;;;;;;9.00;4.53;;;29.10;45.00;;;;;;6197060;28;20467;-74
2021/08/11 09:14:27;;;;;;;14.55;7.60;;;29.20;45.00;;;;;;6196896;28;20154;-75
2021/08/11 09:17:38;;;;;;;12.20;7.13;;;29.20;44.70;;;;;;6196947;28;20081;-74
2021/08/11 09:20:41;;;;;;;13.35;7.25;;;29.30;44.60;;;;;;6178998;28;20038;-75
2021/08/11 09:23:46;;;;;;;11.93;5.65;;;29.40;44.30;;;;;;6179959;28;20038;-74
2021/08/11 09:26:47;;;;;;;9.27;4.15;;;29.50;44.10;;;;;;6170030;28;20030;-76
2021/08/11 09:30:03;;;;;;;6.28;3.03;;;29.70;43.40;;;;;;6179696;28;20046;-77
2021/08/11 09:33:05;;;;;;;4.00;2.97;;;29.70;43.90;;;;;;6179421;28;20395;-74
2021/08/11 09:36:11;;;;;;;9.43;2.72;;;29.80;43.30;;;;;;6179905;28;20045;-75
2021/08/11 09:39:13;;;;;;;5.90;3.10;;;29.80;43.40;;;;;;6182747;28;20042;-75
2021/08/11 09:42:14;;;;;;;4.43;2.72;;;29.90;43.10;;;;;;6183720;28;20030;-76
2021/08/11 09:45:15;;;;;;;8.35;2.92;;;30.00;42.80;;;;;;6201200;28;20038;-76
2021/08/11 09:48:21;;;;;;;3.97;2.55;;;30.00;42.10;;;;;;6200899;28;20057;-76
2021/08/11 09:51:22;;;;;;;7.35;3.47;;;30.10;42.00;;;;;;6201021;28;20045;-76
2021/08/11 09:54:24;;;;;;;12.50;6.15;;;30.20;41.90;;;;;;6182067;28;20121;-75
2021/08/11 09:57:29;;;;;;;6.55;3.55;;;30.30;41.70;;;;;;6174940;28;20038;-76
2021/08/11 10:00:39;;;;;;;5.57;2.47;;;30.30;41.70;;;;;;6167440;28;20049;-76
2021/08/11 10:03:59;;;;;;;7.55;3.47;;;30.40;41.80;;;;;;6198812;28;20068;-75
2021/08/11 10:07:08;;;;;;;9.27;4.72;;;30.50;41.80;;;;;;6184934;28;20069;-75
2021/08/11 10:10:10;;;;;;;6.85;3.17;;;30.50;41.30;;;;;;6185446;28;20053;-76
2021/08/11 10:13:11;;;;;;;21.35;10.27;;;30.60;40.50;;;;;;6187105;28;20053;-76
2021/08/11 10:16:12;;;;;;;10.75;5.40;;;30.60;39.80;;;;;;6191433;28;20069;-74
2021/08/11 10:19:14;;;;;;;10.48;5.75;;;30.60;38.90;;;;;;6208556;28;20094;-75
2021/08/11 10:22:16;;;;;;;12.90;5.32;;;30.60;38.70;;;;;;6209174;28;20038;-75
2021/08/11 10:25:20;;;;;;;4.88;3.00;;;30.70;38.60;;;;;;6170651;28;20178;-75
2021/08/11 10:28:23;;;;;;;8.35;3.25;;;30.70;38.80;;;;;;6186513;28;20125;-75
2021/08/11 10:31:25;;;;;;;4.95;2.78;;;30.80;38.70;;;;;;6169034;28;20038;-74
2021/08/11 10:34:30;;;;;;;6.00;2.83;;;30.90;38.60;;;;;;6190577;28;20048;-75
2021/08/11 10:37:34;;;;;;;7.65;2.97;;;31.00;39.10;;;;;;6200050;28;20039;-74
2021/08/11 10:40:35;;;;;;;5.28;3.20;;;31.00;39.40;;;;;;6182819;28;20379;-75
2021/08/11 10:43:37;;;;;;;7.53;2.90;;;31.20;39.70;;;;;;6183917;28;20061;-74
2021/08/11 10:46:40;;;;;;;3.75;2.60;;;31.20;39.60;;;;;;6199546;28;20030;-75
2021/08/11 10:50:17;;;;;;;4.30;2.70;;;31.40;39.50;;;;;;6199463;28;20389;-75
2021/08/11 10:53:18;;;;;;;7.85;2.75;;;31.50;39.20;;;;;;6172855;28;20038;-75
2021/08/11 10:56:48;;;;;;;6.30;2.70;;;31.70;38.90;;;;;;6179998;28;20060;-75
2021/08/11 10:59:50;;;;;;;8.55;3.10;;;32.00;38.20;;;;;;6178925;28;20042;-76
2021/08/11 11:02:52;;;;;;;14.63;8.05;;;32.70;37.30;;;;;;6178296;28;20091;-76
2021/08/11 11:05:54;;;;;;;8.40;3.25;;;33.50;36.20;;;;;;6179639;28;20071;-74
2021/08/11 11:09:18;;;;;;;9.77;4.05;;;34.30;35.20;;;;;;6196691;28;20042;-75
2021/08/11 11:12:37;;;;;;;9.05;2.67;;;35.10;34.10;;;;;;6178386;28;20045;-75
2021/08/11 11:15:41;;;;;;;4.88;3.17;;;35.60;32.70;;;;;;6195951;28;20096;-75
2021/08/11 11:19:04;;;;;;;6.85;2.97;;;35.90;32.30;;;;;;6180662;28;20105;-75
2021/08/11 11:22:42;;;;;;;4.13;2.70;;;36.30;32.00;;;;;;6162147;28;20038;-75
2021/08/11 11:26:01;;;;;;;4.47;2.97;;;36.80;31.50;;;;;;6194399;28;20183;-75
2021/08/11 11:29:07;;;;;;;5.95;3.13;;;37.30;30.60;;;;;;6194314;28;20053;-76
2021/08/11 11:32:24;;;;;;;3.45;2.53;;;37.60;30.60;;;;;;6193719;28;20096;-75
2021/08/11 11:35:27;;;;;;;4.65;2.85;;;38.00;29.60;;;;;;6195321;28;20377;-75
2021/08/11 11:38:28;;;;;;;8.48;2.70;;;38.30;29.30;;;;;;6161545;28;20057;-75
2021/08/11 11:41:29;;;;;;;4.85;2.42;;;38.50;28.70;;;;;;6195505;28;20393;-75
2021/08/11 11:44:46;;;;;;;3.70;3.13;;;38.60;28.50;;;;;;6180798;28;20030;-75
2021/08/11 11:47:48;;;;;;;6.68;2.78;;;38.60;28.40;;;;;;6178115;28;20030;-75
2021/08/11 11:51:03;;;;;;;4.63;2.70;;;38.80;28.40;;;;;;6177814;28;20439;-75
2021/08/11 11:54:05;;;;;;;3.38;2.63;;;38.80;27.90;;;;;;6177933;28;20036;-75
2021/08/11 11:57:06;;;;;;;7.00;2.53;;;38.80;27.80;;;;;;6162103;28;20372;-75
2021/08/11 12:00:07;;;;;;;7.68;2.50;;;38.90;27.70;;;;;;6194544;28;20030;-75
2021/08/11 12:03:16;;;;;;;7.15;2.58;;;39.00;27.50;;;;;;6177902;28;20392;-75
2021/08/11 12:06:36;;;;;;;11.00;2.78;;;39.30;27.40;;;;;;6161632;28;20046;-75
2021/08/11 12:09:45;;;;;;;6.57;2.83;;;39.70;26.90;;;;;;6178502;28;20121;-75
2021/08/11 12:13:00;;;;;;;2.88;2.25;;;39.90;26.50;;;;;;6179164;28;20109;-75
2021/08/11 12:16:01;;;;;;;3.47;2.38;;;39.90;26.30;;;;;;6196073;28;20050;-75
2021/08/11 12:19:18;;;;;;;4.78;3.13;;;40.00;26.40;;;;;;6195107;28;20530;-76
2021/08/11 12:22:40;;;;;;;6.60;2.60;;;40.20;26.20;;;;;;6178597;28;20038;-76
2021/08/11 12:25:42;;;;;;;5.60;2.05;;;40.50;25.80;;;;;;6178536;28;20068;-75
2021/08/11 12:28:48;;;;;;;5.30;2.55;;;40.70;25.50;;;;;;6196183;28;20038;-76
2021/08/11 12:31:50;;;;;;;5.45;2.92;;;40.90;25.50;;;;;;6178703;28;20038;-75
2021/08/11 12:34:51;;;;;;;3.38;2.25;;;41.10;25.40;;;;;;6197873;28;20030;-75
2021/08/11 12:37:52;;;;;;;7.95;2.47;;;41.40;25.10;;;;;;6164033;28;20057;-75
2021/08/11 12:40:56;;;;;;;4.53;2.70;;;41.80;24.60;;;;;;6179135;28;20041;-74
2021/08/11 12:43:59;;;;;;;5.80;2.25;;;42.00;24.10;;;;;;6177784;28;20027;-75
2021/08/11 12:47:09;;;;;;;9.48;2.90;;;42.20;24.00;;;;;;6176357;28;20030;-76
2021/08/11 12:50:21;;;;;;;4.75;2.78;;;42.50;23.80;;;;;;6192601;28;20054;-75
2021/08/11 12:53:24;;;;;;;8.43;2.60;;;42.90;23.50;;;;;;6154773;28;20038;-75
2021/08/11 12:56:25;;;;;;;7.20;2.30;;;43.30;23.20;;;;;;6154714;28;20130;-75
2021/08/11 12:59:48;;;;;;;3.35;2.30;;;43.60;22.90;;;;;;6154761;28;20034;-75
2021/08/11 13:02:59;;;;;;;10.65;3.15;;;44.10;22.70;;;;;;6180113;28;20443;-75
2021/08/11 13:06:00;;;;;;;5.57;2.97;;;44.50;22.30;;;;;;6178298;28;20035;-76
2021/08/11 13:09:02;;;;;;;5.15;2.42;;;44.90;22.20;;;;;;6163539;28;20103;-74
2021/08/11 13:12:12;;;;;;;7.10;2.30;;;45.20;21.80;;;;;;6179916;28;20042;-76
2021/08/11 13:15:27;;;;;;;3.80;2.50;;;45.60;21.60;;;;;;6184457;28;20045;-76
2021/08/11 13:18:29;;;;;;;9.68;2.65;;;46.10;21.30;;;;;;6184405;28;20469;-76
2021/08/11 13:21:40;;;;;;;12.30;2.55;;;46.70;21.00;;;;;;6201598;28;20030;-76
2021/08/11 13:24:42;;;;;;;9.63;2.65;;;47.20;20.50;;;;;;6184433;28;20058;-76
2021/08/11 13:27:45;;;;;;;12.73;3.08;;;47.90;20.40;;;;;;6184401;28;20477;-76
2021/08/11 13:30:47;;;;;;;4.63;2.33;;;48.50;19.80;;;;;;6174409;28;20048;-76
2021/08/11 13:33:48;;;;;;;7.65;2.30;;;48.90;19.50;;;;;;6182817;28;20038;-76
2021/08/11 13:36:49;;;;;;;4.35;2.75;;;49.40;19.10;;;;;;6183635;28;20046;-76
2021/08/11 13:39:51;;;;;;;6.00;2.88;;;49.70;18.90;;;;;;6200629;28;20142;-76
2021/08/11 13:42:52;;;;;;;8.40;2.75;;;50.00;18.70;;;;;;6183220;28;20042;-75
2021/08/11 13:45:53;;;;;;;6.53;2.80;;;50.50;18.50;;;;;;6200981;28;20038;-75
2021/08/11 13:48:54;;;;;;;6.25;2.75;;;50.90;18.00;;;;;;6183940;28;20046;-75
2021/08/11 13:51:55;;;;;;;4.75;2.67;;;51.00;18.00;;;;;;6200534;28;20046;-75
2021/08/11 13:54:56;;;;;;;5.80;2.42;;;51.00;18.00;;;;;;6183842;28;20050;-75
2021/08/11 13:57:58;;;;;;;5.15;2.88;;;51.10;18.00;;;;;;6183736;28;20518;-76
2021/08/11 14:00:59;;;;;;;5.45;3.13;;;51.20;18.00;;;;;;6167440;28;20099;-76
2021/08/11 14:04:00;;;;;;;8.88;3.40;;;51.40;18.10;;;;;;6198688;28;20162;-76
2021/08/11 14:07:05;;;;;;;7.47;2.53;;;51.50;18.10;;;;;;6183191;28;20034;-76
2021/08/11 14:10:06;;;;;;;4.53;2.97;;;51.60;18.10;;;;;;6181876;28;20073;-76
2021/08/11 14:13:07;;;;;;;6.53;2.80;;;51.70;18.10;;;;;;6200400;28;20448;-75
2021/08/11 14:16:08;;;;;;;6.60;2.92;;;51.70;17.90;;;;;;6166730;28;20042;-76
2021/08/11 14:19:10;;;;;;;11.98;2.80;;;51.70;17.80;;;;;;6183124;28;20117;-76
2021/08/11 14:22:11;;;;;;;6.70;2.78;;;51.70;17.80;;;;;;6182439;28;20100;-76
2021/08/11 14:25:14;;;;;;;6.20;3.10;;;51.80;17.70;;;;;;6199578;28;20030;-76
2021/08/11 14:28:15;;;;;;;7.18;2.72;;;51.90;17.70;;;;;;6181637;28;20042;-76
2021/08/11 14:31:16;;;;;;;4.05;2.60;;;51.80;17.80;;;;;;6182648;28;20030;-76
2021/08/11 14:34:17;;;;;;;2.97;2.33;;;51.70;17.90;;;;;;6182723;28;20053;-76
2021/08/11 14:37:18;;;;;;;3.58;2.58;;;51.50;18.00;;;;;;6166658;28;20043;-76
2021/08/11 14:40:19;;;;;;;4.93;2.42;;;51.30;18.00;;;;;;6180689;28;20371;-76
2021/08/11 14:43:20;;;;;;;5.55;3.17;;;50.50;18.60;;;;;;6182490;28;20530;-76
2021/08/11 14:46:21;;;;;;;4.10;2.92;;;49.00;19.50;;;;;;6199534;28;20129;-76
2021/08/11 14:49:23;;;;;;;4.32;3.03;;;47.40;20.50;;;;;;6186170;28;20134;-75
2021/08/11 14:52:24;;;;;;;16.60;5.40;;;46.10;21.60;;;;;;6156937;28;20117;-75
2021/08/11 14:55:25;;;;;;;5.93;4.13;;;44.90;22.50;;;;;;6142221;28;20070;-76
2021/08/11 14:58:26;;;;;;;5.45;2.80;;;43.80;23.30;;;;;;6141882;28;20035;-76
2021/08/11 15:01:27;;;;;;;4.28;3.00;;;42.80;24.20;;;;;;6157458;28;20034;-75
2021/08/11 15:04:28;;;;;;;5.82;2.75;;;42.00;25.00;;;;;;6163780;28;20352;-75
2021/08/11 15:07:30;;;;;;;3.83;2.63;;;41.30;25.80;;;;;;6199092;28;20042;-76
2021/08/11 15:10:31;;;;;;;5.97;2.65;;;40.60;26.40;;;;;;6181383;28;20114;-75
2021/08/11 15:13:32;;;;;;;5.88;2.92;;;40.00;26.90;;;;;;6198490;28;20483;-75
2021/08/11 15:16:34;;;;;;;5.50;2.90;;;39.50;27.50;;;;;;6181300;28;20125;-75
2021/08/11 15:19:35;;;;;;;6.65;3.10;;;39.10;27.90;;;;;;6198580;28;20046;-75
2021/08/11 15:22:38;;;;;;;3.05;2.45;;;38.70;28.20;;;;;;6198436;28;20050;-75
2021/08/11 15:25:39;;;;;;;12.15;3.83;;;38.50;28.70;;;;;;6181359;28;20030;-75
2021/08/11 15:28:41;;;;;;;4.07;3.00;;;38.20;28.80;;;;;;6181178;28;20042;-75
2021/08/11 15:31:42;;;;;;;5.80;3.17;;;38.00;29.00;;;;;;6164391;28;20030;-75
2021/08/11 15:34:43;;;;;;;5.10;2.42;;;37.90;29.20;;;;;;6180651;28;20455;-75
2021/08/11 15:37:44;;;;;;;7.38;2.67;;;37.90;29.30;;;;;;6164587;28;20046;-75
2021/08/11 15:40:45;;;;;;;5.13;2.88;;;38.30;29.20;;;;;;6181038;28;20120;-76
2021/08/11 15:43:46;;;;;;;5.53;2.83;;;39.60;28.10;;;;;;6197872;28;20034;-76
2021/08/11 15:46:47;;;;;;;5.00;2.60;;;41.20;26.60;;;;;;6197706;28;20090;-76
2021/08/11 15:49:48;;;;;;;3.85;2.53;;;42.80;25.10;;;;;;6197580;28;20038;-76
2021/08/11 15:52:49;;;;;;;3.92;2.13;;;44.20;23.80;;;;;;6180447;28;20096;-76
2021/08/11 15:55:51;;;;;;;3.75;2.40;;;45.30;22.70;;;;;;6197840;28;20046;-75